Time;durP1;ratioP1;P1;durP2;ratioP2;P2;SDS_P1;SDS_P2;PMS_P1;PMS_P2;Temp;Humidity;BMP_temperature;BMP_pressure;BME280_temperature;BME280_humidity;BME280_pressure;Samples;Min_cycle;Max_cycle;Signal;HPM_P1;HPM_P2
2022/08/15 00:00:31;;;;;;;17.20;15.50;;;;;;;19.55;83.28;97155.34;105183;1282;25313;-82
2022/08/15 00:03:04;;;;;;;18.20;15.10;;;;;;;19.52;83.34;97148.14;105297;1281;25242;-82
2022/08/15 00:05:38;;;;;;;16.90;15.20;;;;;;;19.48;83.31;97148.73;105264;1282;22581;-83
2022/08/15 00:08:10;;;;;;;18.00;16.00;;;;;;;19.41;83.15;97149.98;105242;1281;23649;-82
2022/08/15 00:11:04;;;;;;;17.60;15.70;;;;;;;19.32;83.35;97147.78;105322;1281;24329;-83
2022/08/15 00:13:59;;;;;;;18.40;16.60;;;;;;;19.22;83.42;97146.98;105663;1281;22557;-83
2022/08/15 00:16:33;;;;;;;19.10;17.40;;;;;;;19.15;83.86;97146.35;105246;1282;25373;-82
2022/08/15 00:19:07;;;;;;;20.70;18.70;;;;;;;19.15;84.97;97144.25;105399;1281;25452;-81
2022/08/15 00:21:41;;;;;;;20.30;18.20;;;;;;;19.15;85.10;97138.46;105499;1281;24216;-81
2022/08/15 00:24:17;;;;;;;20.30;18.20;;;;;;;19.15;84.87;97134.41;105377;1282;22711;-82
2022/08/15 00:26:50;;;;;;;20.50;18.50;;;;;;;19.11;85.09;97133.04;105451;1281;24495;-82
2022/08/15 00:29:24;;;;;;;19.30;17.40;;;;;;;19.05;85.06;97135.55;105272;1281;25323;-83
2022/08/15 00:32:09;;;;;;;19.10;17.10;;;;;;;18.97;85.20;97131.80;105319;1281;25355;-81
2022/08/15 00:34:57;;;;;;;20.70;18.50;;;;;;;18.87;85.39;97135.11;105276;1281;25240;-82
2022/08/15 00:37:26;;;;;;;21.60;19.30;;;;;;;18.78;85.40;97132.66;105261;1281;24384;-84
2022/08/15 00:39:56;;;;;;;21.10;18.90;;;;;;;18.73;85.85;97129.94;105281;1282;25476;-83
2022/08/15 00:42:25;;;;;;;21.70;19.50;;;;;;;18.71;86.13;97131.30;105316;1281;24314;-83
2022/08/15 00:44:58;;;;;;;21.70;19.50;;;;;;;18.70;86.30;97128.48;105095;1284;23920;-82
2022/08/15 00:47:40;;;;;;;23.60;19.30;;;;;;;18.69;86.41;97133.21;105320;1282;25266;-83
2022/08/15 00:50:14;;;;;;;19.80;17.70;;;;;;;18.66;86.45;97129.66;105300;1282;23944;-84
2022/08/15 00:53:09;;;;;;;21.30;19.30;;;;;;;18.61;86.50;97132.73;105325;1281;23900;-81
2022/08/15 00:55:41;;;;;;;20.00;18.00;;;;;;;18.59;86.60;97134.42;105224;1282;25371;-83
2022/08/15 00:58:09;;;;;;;20.50;18.60;;;;;;;18.59;86.74;97131.70;105315;1281;24107;-83
2022/08/15 01:00:57;;;;;;;21.30;18.90;;;;;;;18.60;86.78;97125.94;105347;1281;22603;-83
2022/08/15 01:03:32;;;;;;;21.30;19.20;;;;;;;18.60;86.79;97126.32;105125;1284;23275;-83
2022/08/15 01:06:22;;;;;;;21.30;19.20;;;;;;;18.60;86.88;97127.33;105244;1282;24225;-83
2022/08/15 01:09:01;;;;;;;22.10;20.00;;;;;;;18.58;86.90;97126.15;105110;1282;24255;-83
2022/08/15 01:11:55;;;;;;;22.80;20.80;;;;;;;18.54;86.84;97126.17;105392;1281;25313;-83
2022/08/15 01:14:23;;;;;;;;;;;;;;;18.47;86.94;97124.83;105367;1281;22682;-83
2022/08/15 01:17:13;;;;;;;22.10;20.10;;;;;;;18.39;86.83;97120.11;105347;1281;22553;-83
2022/08/15 01:19:49;;;;;;;21.20;19.20;;;;;;;18.33;87.11;97123.23;105380;1281;22550;-83
2022/08/15 01:22:47;;;;;;;21.50;19.50;;;;;;;18.30;87.11;97119.60;105169;1281;22734;-84
2022/08/15 01:25:25;;;;;;;22.00;20.20;;;;;;;18.26;87.10;97124.38;105223;1281;25245;-83
2022/08/15 01:28:18;;;;;;;23.40;20.60;;;;;;;18.20;87.24;97127.63;105256;1281;24376;-82
2022/08/15 01:30:59;;;;;;;;;;;;;;;18.14;87.38;97127.25;105321;1281;25362;-82
2022/08/15 01:33:39;;;;;;;36.70;22.30;;;;;;;18.09;87.57;97122.66;105280;1281;22560;-83
2022/08/15 01:36:09;;;;;;;24.00;21.60;;;;;;;18.04;87.65;97120.48;105147;1281;22550;-84
2022/08/15 01:39:09;;;;;;;26.10;23.50;;;;;;;18.02;87.93;97119.50;105405;1281;26634;-85
2022/08/15 01:41:47;;;;;;;30.40;22.90;;;;;;;17.99;87.86;97119.86;105403;1281;25326;-82
2022/08/15 01:44:34;;;;;;;24.30;22.10;;;;;;;18.00;88.22;97118.78;105319;1281;22544;-83
2022/08/15 01:47:33;;;;;;;27.40;24.70;;;;;;;18.02;88.83;97114.20;105281;1281;23206;-82
2022/08/15 01:50:08;;;;;;;28.10;25.60;;;;;;;17.99;88.80;97117.05;105228;1282;22629;-83
2022/08/15 01:53:13;;;;;;;27.40;24.60;;;;;;;17.94;88.77;97117.90;105359;1281;25364;-83
2022/08/15 01:55:53;;;;;;;25.70;23.20;;;;;;;17.90;88.83;97117.45;105360;1281;22646;-83
2022/08/15 01:58:28;;;;;;;26.00;23.60;;;;;;;17.91;89.02;97112.86;105374;1281;24372;-83
2022/08/15 02:01:03;;;;;;;25.30;22.90;;;;;;;17.91;89.12;97112.89;105180;1281;25530;-82
2022/08/15 02:03:35;;;;;;;;;;;;;;;17.90;89.00;97112.79;105364;1281;22667;-84
2022/08/15 02:06:29;;;;;;;24.10;21.90;;;;;;;17.87;89.05;97110.31;105314;1281;25352;-83
2022/08/15 02:09:13;;;;;;;26.10;23.90;;;;;;;17.84;89.18;97109.81;105272;1281;25304;-83
2022/08/15 02:12:08;;;;;;;27.30;24.50;;;;;;;17.82;89.16;97108.15;105274;1282;22818;-82
2022/08/15 02:14:58;;;;;;;26.50;24.10;;;;;;;17.78;89.42;97104.25;105412;1281;25350;-83
2022/08/15 02:17:26;;;;;;;27.70;25.00;;;;;;;17.73;89.68;97107.73;105385;1281;25353;-82
2022/08/15 02:20:00;;;;;;;27.50;24.60;;;;;;;17.67;89.84;97106.70;105385;1281;22577;-82
2022/08/15 02:22:48;;;;;;;26.40;24.00;;;;;;;17.64;90.02;97108.21;105153;1281;24249;-82
2022/08/15 02:25:18;;;;;;;27.20;23.60;;;;;;;17.62;90.07;97103.44;105244;1282;25388;-82
2022/08/15 02:27:53;;;;;;;27.90;23.10;;;;;;;17.60;89.85;97099.17;105404;1281;22686;-82
2022/08/15 02:30:26;;;;;;;24.30;22.10;;;;;;;17.51;90.20;97092.36;105205;1283;22785;-82
2022/08/15 02:33:04;;;;;;;23.60;21.60;;;;;;;17.39;90.19;97086.63;105421;1281;22567;-83
2022/08/15 02:35:36;;;;;;;27.30;24.90;;;;;;;17.31;90.48;97083.14;105253;1282;25251;-83
2022/08/15 02:38:07;;;;;;;28.50;24.10;;;;;;;17.22;90.61;97079.58;105302;1281;25237;-83
2022/08/15 02:40:50;;;;;;;24.40;22.00;;;;;;;17.22;90.91;97078.56;105286;1281;23974;-83
2022/08/15 02:43:22;;;;;;;26.40;23.80;;;;;;;17.23;90.90;97079.50;105202;1282;25342;-82
2022/08/15 02:45:51;;;;;;;24.70;22.50;;;;;;;17.24;90.87;97079.77;105342;1281;22654;-82
2022/08/15 02:48:46;;;;;;;26.10;23.60;;;;;;;17.24;90.64;97080.77;105213;1283;22727;-83
2022/08/15 02:51:35;;;;;;;26.00;23.50;;;;;;;17.21;90.92;97078.38;105272;1281;25520;-83
2022/08/15 02:54:27;;;;;;;25.80;23.40;;;;;;;17.06;90.90;97071.48;105327;1281;25357;-84
2022/08/15 02:57:08;;;;;;;26.30;23.70;;;;;;;16.92;90.85;97071.23;105285;1281;22683;-84
2022/08/15 02:59:40;;;;;;;26.40;24.10;;;;;;;16.84;90.95;97068.27;105174;1282;22704;-84
2022/08/15 03:02:13;;;;;;;26.00;23.50;;;;;;;16.80;91.21;97063.88;105263;1281;25328;-84
2022/08/15 03:05:03;;;;;;;25.10;22.70;;;;;;;16.80;91.13;97061.15;105293;1281;25412;-82
2022/08/15 03:07:35;;;;;;;24.20;21.90;;;;;;;16.81;91.40;97061.55;105170;1282;25419;-82
2022/08/15 03:10:04;;;;;;;25.40;22.90;;;;;;;16.82;91.34;97054.09;105084;1281;24317;-84
2022/08/15 03:12:58;;;;;;;25.70;23.00;;;;;;;16.82;91.27;97054.26;105212;1284;25410;-84
2022/08/15 03:15:37;;;;;;;24.20;22.00;;;;;;;16.81;91.40;97051.52;105278;1281;25467;-83
2022/08/15 03:18:08;;;;;;;28.50;25.60;;;;;;;16.78;91.39;97058.87;105088;1281;22571;-83
2022/08/15 03:20:41;;;;;;;27.20;24.60;;;;;;;16.73;91.42;97060.83;105230;1283;22567;-83
2022/08/15 03:23:14;;;;;;;25.30;23.10;;;;;;;16.69;91.67;97058.33;105244;1281;25327;-83
2022/08/15 03:25:48;;;;;;;26.70;24.30;;;;;;;16.65;91.56;97061.05;105343;1281;25369;-83
2022/08/15 03:28:31;;;;;;;25.30;23.20;;;;;;;16.65;92.12;97055.77;105290;1281;25407;-84
2022/08/15 03:31:06;;;;;;;27.70;24.60;;;;;;;16.63;92.33;97054.17;105309;1281;22621;-83
2022/08/15 03:33:40;;;;;;;25.50;23.30;;;;;;;16.61;93.42;97056.61;105314;1281;24293;-83
2022/08/15 03:36:24;;;;;;;27.40;24.70;;;;;;;16.57;93.22;97052.82;105301;1281;24207;-82
2022/08/15 03:38:53;;;;;;;27.40;24.70;;;;;;;16.59;93.83;97049.90;105109;1284;24440;-83
2022/08/15 03:41:24;;;;;;;27.00;24.40;;;;;;;16.59;94.10;97046.70;105156;1284;22692;-82
2022/08/15 03:43:53;;;;;;;30.20;27.00;;;;;;;16.59;93.98;97044.70;105130;1281;24274;-82
2022/08/15 03:46:22;;;;;;;30.60;27.60;;;;;;;16.63;94.55;97043.05;105285;1281;25495;-83
2022/08/15 03:48:56;;;;;;;30.00;27.10;;;;;;;16.67;94.25;97042.27;105079;1284;23084;-82
2022/08/15 03:51:29;;;;;;;29.70;26.80;;;;;;;16.73;94.31;97045.42;105296;1281;25303;-82
2022/08/15 03:54:00;;;;;;;28.40;25.90;;;;;;;16.77;94.35;97045.16;105284;1281;24531;-82
2022/08/15 03:56:32;;;;;;;29.20;26.70;;;;;;;16.85;94.23;97047.55;105138;1281;25295;-82
2022/08/15 03:59:01;;;;;;;27.90;25.20;;;;;;;16.92;94.31;97047.38;105186;1282;25515;-83
2022/08/15 04:01:35;;;;;;;27.00;24.20;;;;;;;16.99;94.25;97046.25;105183;1284;25407;-83
2022/08/15 04:04:10;;;;;;;26.20;23.60;;;;;;;17.06;94.33;97051.50;105310;1281;24212;-82
2022/08/15 04:06:47;;;;;;;26.20;23.90;;;;;;;17.13;94.41;97049.54;105349;1281;26653;-85
2022/08/15 04:09:28;;;;;;;26.30;24.00;;;;;;;17.18;94.38;97049.85;105300;1281;22624;-81
2022/08/15 04:11:58;;;;;;;24.20;22.20;;;;;;;17.21;94.81;97048.98;105133;1284;22663;-83
2022/08/15 04:14:35;;;;;;;25.70;23.20;;;;;;;17.27;94.85;97051.72;105323;1281;25403;-82
2022/08/15 04:17:10;;;;;;;29.00;26.10;;;;;;;17.31;94.82;97051.02;105287;1281;25292;-83
2022/08/15 04:19:52;;;;;;;25.80;23.40;;;;;;;17.39;94.87;97054.55;105314;1281;25467;-83
2022/08/15 04:22:38;;;;;;;26.60;24.20;;;;;;;17.48;95.09;97060.08;105334;1281;22654;-82
2022/08/15 04:25:44;;;;;;;25.00;22.60;;;;;;;17.59;95.25;97064.08;105233;1283;25406;-81
2022/08/15 04:28:28;;;;;;;27.60;25.20;;;;;;;17.69;95.23;97066.89;105393;1281;26561;-84
2022/08/15 04:31:19;;;;;;;25.60;23.20;;;;;;;17.79;95.21;97066.44;105109;1284;23357;-84
2022/08/15 04:33:48;;;;;;;26.70;24.00;;;;;;;17.84;95.25;97065.98;105242;1284;22540;-84
2022/08/15 04:36:36;;;;;;;26.40;24.10;;;;;;;17.91;95.14;97067.88;105419;1281;24303;-84
2022/08/15 04:39:07;;;;;;;24.20;22.00;;;;;;;17.98;95.35;97071.25;105473;1281;25519;-83
2022/08/15 04:42:01;;;;;;;24.70;22.20;;;;;;;18.04;95.79;97069.23;105390;1281;25363;-85
2022/08/15 04:44:31;;;;;;;25.40;23.00;;;;;;;18.09;96.20;97068.52;105309;1282;25425;-82
2022/08/15 04:46:59;;;;;;;24.60;22.30;;;;;;;18.16;96.13;97066.19;105662;1284;22700;-82
2022/08/15 04:49:29;;;;;;;25.20;22.90;;;;;;;18.24;96.13;97071.29;106490;1281;22686;-83
2022/08/15 04:52:14;;;;;;;24.20;21.60;;;;;;;18.32;96.26;97065.64;106421;1281;22580;-84
2022/08/15 04:54:45;;;;;;;24.00;21.70;;;;;;;18.40;96.51;97061.53;105895;1281;22734;-81
2022/08/15 04:57:30;;;;;;;25.40;23.10;;;;;;;18.43;96.28;97055.02;106023;1282;26707;-82
2022/08/15 04:59:59;;;;;;;23.40;21.30;;;;;;;18.53;96.57;97058.72;106907;1281;22544;-83
2022/08/15 05:02:58;;;;;;;24.80;22.30;;;;;;;18.62;96.73;97061.48;106334;1281;22582;-82
2022/08/15 05:05:31;;;;;;;24.30;21.90;;;;;;;18.71;96.76;97062.84;105934;1281;22537;-82
2022/08/15 05:08:07;;;;;;;23.50;21.30;;;;;;;18.80;96.86;97061.10;105712;1281;22609;-85
2022/08/15 05:10:44;;;;;;;23.40;20.80;;;;;;;18.89;96.79;97061.02;106232;1281;24011;-84
2022/08/15 05:13:24;;;;;;;22.50;20.10;;;;;;;18.96;96.62;97068.85;107231;1281;22885;-82
2022/08/15 05:15:54;;;;;;;23.40;21.20;;;;;;;19.03;96.83;97067.75;107268;1283;22552;-82
2022/08/15 05:18:29;;;;;;;27.50;23.70;;;;;;;19.11;96.97;97063.45;107297;1283;22646;-83
2022/08/15 05:20:58;;;;;;;28.60;22.60;;;;;;;19.19;97.02;97059.33;106320;1281;22712;-84
2022/08/15 05:23:31;;;;;;;25.60;22.90;;;;;;;19.28;96.89;97057.77;107066;1281;22528;-82
2022/08/15 05:26:05;;;;;;;24.70;22.20;;;;;;;19.40;96.96;97061.77;108067;1281;22588;-83
2022/08/15 05:28:54;;;;;;;25.60;23.10;;;;;;;19.45;96.66;97061.83;107929;1281;23010;-84
2022/08/15 05:31:27;;;;;;;25.30;23.10;;;;;;;19.52;96.99;97064.14;106384;1281;22580;-83
2022/08/15 05:34:01;;;;;;;26.60;23.90;;;;;;;19.60;97.15;97066.78;105835;1283;22633;-82
2022/08/15 05:36:35;;;;;;;25.70;23.30;;;;;;;19.62;96.99;97070.78;105638;1281;24225;-83
2022/08/15 05:39:21;;;;;;;27.20;24.50;;;;;;;19.63;96.85;97069.77;105270;1281;22560;-83
2022/08/15 05:42:05;;;;;;;27.10;24.60;;;;;;;19.61;96.88;97070.94;105304;1281;25301;-83
2022/08/15 05:44:49;;;;;;;25.70;23.30;;;;;;;19.64;96.71;97072.14;105449;1281;25250;-84
2022/08/15 05:47:32;;;;;;;25.20;22.60;;;;;;;19.66;96.84;97068.64;105482;1281;22575;-86
2022/08/15 05:50:30;;;;;;;25.80;23.20;;;;;;;19.70;96.93;97064.78;105405;1281;25459;-84
2022/08/15 05:53:31;;;;;;;28.10;25.30;;;;;;;19.77;97.00;97065.61;105196;1284;22719;-86
2022/08/15 05:56:18;;;;;;;27.60;24.50;;;;;;;19.84;96.98;97069.88;105351;1281;22684;-84
2022/08/15 05:59:03;;;;;;;30.50;27.50;;;;;;;19.90;96.94;97075.95;105306;1281;23324;-85
2022/08/15 06:01:41;;;;;;;32.10;28.80;;;;;;;19.92;96.83;97078.08;105387;1281;25255;-84
2022/08/15 06:04:45;;;;;;;34.40;30.90;;;;;;;19.91;96.79;97076.49;105393;1281;26561;-83
2022/08/15 06:07:17;;;;;;;35.10;29.70;;;;;;;19.91;96.83;97075.23;105371;1281;25737;-83
2022/08/15 06:09:51;;;;;;;34.20;30.80;;;;;;;19.91;97.01;97071.73;105360;1281;25583;-84
2022/08/15 06:12:35;;;;;;;34.60;30.90;;;;;;;19.96;96.99;97074.35;105420;1281;25361;-84
2022/08/15 06:15:24;;;;;;;37.10;33.50;;;;;;;20.02;97.04;97079.22;105344;1281;22744;-85
2022/08/15 06:18:09;;;;;;;39.00;35.00;;;;;;;20.07;96.93;97084.11;105099;1281;24391;-83
2022/08/15 06:21:00;;;;;;;37.90;34.20;;;;;;;20.08;96.91;97083.64;105271;1281;24278;-84
2022/08/15 06:23:38;;;;;;;40.90;36.00;;;;;;;20.10;96.84;97086.00;105350;1281;25420;-84
2022/08/15 06:26:28;;;;;;;38.10;33.90;;;;;;;20.16;96.92;97089.48;105223;1281;25487;-83
2022/08/15 06:29:23;;;;;;;36.70;33.00;;;;;;;20.21;96.90;97096.52;105270;1281;25243;-82
2022/08/15 06:32:32;;;;;;;38.50;34.60;;;;;;;20.24;96.80;97101.26;105334;1281;24288;-83
2022/08/15 06:35:10;;;;;;;36.80;33.20;;;;;;;20.22;96.69;97099.52;105215;1282;25407;-83
2022/08/15 06:38:02;;;;;;;34.70;31.00;;;;;;;20.20;96.50;97102.48;105121;1283;24016;-84
2022/08/15 06:40:56;;;;;;;33.70;30.50;;;;;;;20.20;96.52;97104.42;105418;1281;22655;-83
2022/08/15 06:43:24;;;;;;;34.70;31.10;;;;;;;20.20;96.53;97105.45;105268;1281;23985;-82
2022/08/15 06:46:13;;;;;;;36.40;32.70;;;;;;;20.22;96.54;97099.27;105277;1282;25353;-81
2022/08/15 06:49:07;;;;;;;35.10;31.60;;;;;;;20.28;96.51;97091.73;105708;1281;25425;-83
2022/08/15 06:51:42;;;;;;;37.70;33.90;;;;;;;20.36;96.67;97088.34;105308;1281;22614;-82
2022/08/15 06:54:19;;;;;;;36.40;32.40;;;;;;;20.45;96.53;97086.83;105302;1281;25495;-82
2022/08/15 06:57:08;;;;;;;34.30;31.00;;;;;;;20.52;96.54;97090.39;105346;1281;22694;-82
2022/08/15 06:59:56;;;;;;;34.10;30.70;;;;;;;20.59;96.31;97093.88;105194;1281;22628;-82
2022/08/15 07:02:45;;;;;;;32.00;28.70;;;;;;;20.65;96.26;97097.97;105226;1282;22621;-82
2022/08/15 07:05:20;;;;;;;33.40;30.00;;;;;;;20.68;95.90;97098.45;105107;1283;25358;-82
2022/08/15 07:08:09;;;;;;;36.00;31.90;;;;;;;20.70;95.83;97101.67;105335;1281;22625;-82
2022/08/15 07:11:17;;;;;;;34.10;30.70;;;;;;;20.71;95.60;97101.29;105469;1281;25355;-84
2022/08/15 07:14:02;;;;;;;33.70;30.40;;;;;;;20.74;95.38;97098.88;105326;1281;25386;-84
2022/08/15 07:17:00;;;;;;;30.80;27.80;;;;;;;20.78;95.25;97094.27;105420;1281;25450;-82
2022/08/15 07:19:29;;;;;;;31.00;27.70;;;;;;;20.82;95.35;97098.27;105383;1281;22766;-82
2022/08/15 07:22:09;;;;;;;30.30;27.40;;;;;;;20.90;95.15;97098.61;105194;1282;22556;-82
2022/08/15 07:24:49;;;;;;;30.90;27.70;;;;;;;20.94;94.89;97099.58;105387;1281;24266;-82
2022/08/15 07:28:04;;;;;;;31.30;28.10;;;;;;;20.99;94.90;97101.08;105394;1281;22651;-82
2022/08/15 07:30:44;;;;;;;29.60;26.50;;;;;;;21.05;94.67;97100.77;104455;1290;25543;-82
2022/08/15 07:33:32;;;;;;;27.80;25.20;;;;;;;21.09;94.15;97100.48;104312;1291;22590;-82
2022/08/15 07:36:24;;;;;;;27.60;25.10;;;;;;;21.18;94.18;97096.27;104530;1290;25490;-82
2022/08/15 07:39:33;;;;;;;28.70;25.80;;;;;;;21.25;94.00;97098.31;104466;1290;22563;-82
2022/08/15 07:42:21;;;;;;;29.10;26.60;;;;;;;21.35;93.90;97103.44;104475;1290;25492;-82
2022/08/15 07:45:18;;;;;;;27.50;24.90;;;;;;;21.43;93.61;97106.91;104500;1290;25373;-82
2022/08/15 07:48:05;;;;;;;26.30;23.80;;;;;;;21.51;93.28;97108.41;104517;1290;25336;-82
2022/08/15 07:50:41;;;;;;;26.00;23.50;;;;;;;21.54;92.66;97104.11;104341;1290;22579;-82
2022/08/15 07:53:23;;;;;;;25.00;22.40;;;;;;;21.62;93.08;97101.14;104490;1290;22598;-82
2022/08/15 07:56:14;;;;;;;27.00;24.20;;;;;;;21.75;93.08;97102.93;104336;1291;25333;-82
2022/08/15 07:59:20;;;;;;;29.60;25.60;;;;;;;21.80;91.84;97104.84;104485;1290;25441;-84
2022/08/15 08:02:19;;;;;;;26.30;24.00;;;;;;;21.78;91.57;97101.69;104486;1290;24898;-82
2022/08/15 08:05:07;;;;;;;25.40;22.80;;;;;;;21.88;91.88;97100.52;104498;1290;22664;-83
2022/08/15 08:07:44;;;;;;;26.50;23.80;;;;;;;22.05;91.89;97097.83;104758;1281;25238;-83
2022/08/15 08:10:24;;;;;;;;;;;;;;;22.22;91.13;97101.20;105630;1282;24988;-82
2022/08/15 08:13:15;;;;;;;26.40;23.90;;;;;;;22.31;90.66;97102.60;105496;1281;24115;-83
2022/08/15 08:16:19;;;;;;;25.60;23.10;;;;;;;22.46;90.05;97104.84;105390;1281;25484;-83
2022/08/15 08:19:08;;;;;;;23.60;21.50;;;;;;;22.54;89.41;97113.13;105391;1281;25366;-83
2022/08/15 08:21:41;;;;;;;24.20;21.80;;;;;;;22.58;88.68;97113.67;105393;1281;25325;-83
2022/08/15 08:24:26;;;;;;;23.30;20.70;;;;;;;22.67;88.60;97117.25;105130;1283;25253;-81
2022/08/15 08:27:12;;;;;;;23.70;21.50;;;;;;;22.77;87.85;97120.90;105176;1282;25473;-82
2022/08/15 08:29:53;;;;;;;24.90;22.30;;;;;;;22.73;87.07;97119.03;105413;1281;25363;-82
2022/08/15 08:32:49;;;;;;;26.90;24.30;;;;;;;22.79;87.61;97119.73;105379;1281;24433;-82
2022/08/15 08:35:41;;;;;;;24.40;22.10;;;;;;;22.96;86.67;97123.12;105408;1281;25300;-82
2022/08/15 08:38:18;;;;;;;22.10;19.80;;;;;;;23.02;85.62;97121.52;105355;1281;24251;-83
2022/08/15 08:41:36;;;;;;;21.00;19.00;;;;;;;23.10;84.71;97127.62;105352;1281;25241;-84
2022/08/15 08:44:41;;;;;;;22.70;20.80;;;;;;;23.25;85.09;97121.27;105142;1281;22658;-84
2022/08/15 08:47:21;;;;;;;21.80;19.90;;;;;;;23.34;84.52;97120.19;105312;1281;25325;-83
2022/08/15 08:50:17;;;;;;;23.00;20.80;;;;;;;23.45;84.62;97115.48;105297;1281;24249;-82
2022/08/15 08:53:15;;;;;;;22.90;20.70;;;;;;;23.61;84.05;97114.98;105341;1281;22615;-82
2022/08/15 08:56:14;;;;;;;21.60;19.10;;;;;;;23.62;82.50;97114.52;105334;1281;26272;-82
2022/08/15 08:59:10;;;;;;;22.00;19.70;;;;;;;23.71;82.97;97119.41;105340;1281;22788;-82
2022/08/15 09:01:40;;;;;;;21.70;19.60;;;;;;;23.89;83.39;97121.40;105465;1281;25650;-83
2022/08/15 09:04:15;;;;;;;21.30;19.30;;;;;;;24.06;82.83;97119.38;105275;1281;22648;-82
2022/08/15 09:06:49;;;;;;;21.90;19.70;;;;;;;24.07;81.79;97123.52;105380;1280;22695;-82
2022/08/15 09:09:29;;;;;;;21.50;19.30;;;;;;;24.05;81.48;97121.11;105419;1281;22649;-82
2022/08/15 09:12:03;;;;;;;20.70;18.90;;;;;;;24.02;79.89;97122.54;105426;1281;22564;-83
2022/08/15 09:14:43;;;;;;;22.40;20.20;;;;;;;23.98;80.03;97121.25;105242;1281;22725;-83
2022/08/15 09:17:33;;;;;;;22.40;20.10;;;;;;;24.08;80.16;97118.65;105345;1281;23032;-83
2022/08/15 09:20:14;;;;;;;21.30;19.10;;;;;;;24.15;79.34;97114.09;105348;1281;24945;-83
2022/08/15 09:22:50;;;;;;;21.40;19.10;;;;;;;24.20;78.62;97117.98;105348;1281;23002;-82
2022/08/15 09:25:23;;;;;;;21.00;18.50;;;;;;;24.27;78.99;97117.76;105139;1282;25491;-82
2022/08/15 09:28:11;;;;;;;20.60;18.30;;;;;;;24.39;78.54;97116.23;105374;1281;26650;-82
2022/08/15 09:31:06;;;;;;;20.80;18.60;;;;;;;24.52;78.54;97113.68;105337;1281;22557;-83
2022/08/15 09:34:06;;;;;;;20.80;18.70;;;;;;;24.60;77.60;97109.73;105334;1281;25363;-83
2022/08/15 09:37:13;;;;;;;20.50;18.40;;;;;;;24.68;78.25;97109.23;105232;1281;22813;-83
2022/08/15 09:40:03;;;;;;;21.10;19.20;;;;;;;24.80;77.18;97103.27;104929;1285;24535;-84
2022/08/15 09:43:28;;;;;;;20.10;18.10;;;;;;;24.91;76.73;97104.33;104985;1285;25377;-84
2022/08/15 09:46:32;;;;;;;19.80;17.80;;;;;;;25.05;77.08;97106.66;104974;1285;22901;-82
2022/08/15 09:49:48;;;;;;;19.50;17.30;;;;;;;25.18;75.22;97104.64;104231;1294;22634;-83
2022/08/15 09:52:26;;;;;;;18.10;16.30;;;;;;;25.23;74.71;97105.35;103220;1293;1442083;-83
2022/08/15 09:55:34;;;;;;;19.70;17.80;;;;;;;25.31;74.24;97103.89;104199;1294;25511;-83
2022/08/15 09:58:24;;;;;;;18.10;16.20;;;;;;;25.37;73.43;97105.39;104240;1293;24277;-83
2022/08/15 10:01:19;;;;;;;19.20;17.20;;;;;;;25.43;73.05;97106.48;104255;1294;25562;-83
2022/08/15 10:03:59;;;;;;;18.80;16.80;;;;;;;25.52;73.01;97098.01;104229;1294;25460;-83
2022/08/15 10:06:30;;;;;;;18.60;16.60;;;;;;;25.64;72.95;97096.23;104187;1294;25429;-83
2022/08/15 10:09:02;;;;;;;19.40;17.50;;;;;;;25.75;72.54;97093.08;104222;1294;24357;-83
2022/08/15 10:11:39;;;;;;;18.80;16.80;;;;;;;25.84;71.43;97088.92;104429;1288;23284;-83
2022/08/15 10:14:19;;;;;;;20.90;17.50;;;;;;;25.86;71.48;97086.61;104555;1288;22806;-83
2022/08/15 10:16:52;;;;;;;19.70;16.80;;;;;;;25.97;71.91;97081.86;104656;1288;25475;-83
2022/08/15 10:19:39;;;;;;;18.10;16.50;;;;;;;26.10;71.18;97077.52;104560;1287;22766;-84
2022/08/15 10:22:27;;;;;;;19.60;17.60;;;;;;;26.21;70.48;97075.89;104545;1288;22919;-84
2022/08/15 10:25:30;;;;;;;18.10;16.40;;;;;;;26.37;70.84;97074.98;104658;1284;24213;-84
2022/08/15 10:28:06;;;;;;;22.40;16.40;;;;;;;26.47;69.92;97075.51;105446;1281;22658;-84
2022/08/15 10:31:02;;;;;;;18.50;15.80;;;;;;;26.56;70.04;97075.20;105173;1281;25418;-82
2022/08/15 10:34:14;;;;;;;17.30;15.80;;;;;;;26.66;69.24;97072.40;105348;1281;22537;-83
2022/08/15 10:37:51;;;;;;;18.10;14.30;;;;;;;26.95;70.23;97073.86;105428;1281;22597;-84
2022/08/15 10:41:35;;;;;;;17.40;15.50;;;;;;;27.26;68.82;97068.94;105447;1281;22563;-84
2022/08/15 10:45:37;;;;;;;19.40;15.80;;;;;;;27.29;67.69;97069.98;105411;1281;23959;-83
2022/08/15 10:49:13;;;;;;;17.00;14.50;;;;;;;27.46;67.19;97064.66;104580;1287;23295;-82
2022/08/15 10:53:19;;;;;;;15.60;14.10;;;;;;;27.60;67.15;97064.20;103983;1294;23430;-84
2022/08/15 10:56:57;;;;;;;;;;;;;;;27.79;67.53;97067.14;103823;1294;22667;-85
2022/08/15 11:00:50;;;;;;;15.10;13.60;;;;;;;28.03;66.85;97070.11;103735;1294;23053;-83
2022/08/15 11:04:45;;;;;;;14.50;12.30;;;;;;;28.17;66.16;97066.96;103599;1300;25395;-83
2022/08/15 11:08:35;;;;;;;16.40;11.70;;;;;;;28.32;64.65;97068.15;103558;1300;25270;-83
2022/08/15 11:12:23;;;;;;;15.30;10.90;;;;;;;28.59;65.02;97068.86;103577;1300;25391;-84
2022/08/15 11:15:17;;;;;;;14.00;11.00;;;;;;;28.84;64.01;97066.66;103542;1300;25190;-84
2022/08/15 11:18:00;;;;;;;14.10;11.00;;;;;;;28.96;62.99;97065.17;103599;1300;25677;-84
2022/08/15 11:20:52;;;;;;;12.80;10.60;;;;;;;29.08;62.25;97063.85;103751;1300;22869;-83
2022/08/15 11:23:39;;;;;;;16.70;10.80;;;;;;;29.22;60.61;97065.79;103586;1300;23983;-83
2022/08/15 11:26:13;;;;;;;11.10;10.00;;;;;;;29.31;59.68;97066.39;103846;1297;25286;-84
2022/08/15 11:29:08;;;;;;;11.70;10.60;;;;;;;29.34;58.64;97072.00;104209;1291;23959;-84
2022/08/15 11:31:58;;;;;;;12.30;10.90;;;;;;;29.43;58.83;97062.13;104577;1288;25356;-83
2022/08/15 11:34:47;;;;;;;12.30;10.50;;;;;;;29.23;55.12;97066.95;104587;1288;22737;-83
2022/08/15 11:37:24;;;;;;;21.70;10.90;;;;;;;29.24;56.30;97062.88;104599;1288;25485;-83
2022/08/15 11:40:21;;;;;;;11.80;10.50;;;;;;;29.43;56.48;97060.30;104651;1285;22701;-83
2022/08/15 11:42:53;;;;;;;12.40;10.70;;;;;;;29.70;57.06;97056.61;104825;1287;24490;-83
2022/08/15 11:45:41;;;;;;;11.00;9.80;;;;;;;29.84;54.84;97048.29;104766;1287;24313;-84
2022/08/15 11:48:23;;;;;;;12.70;8.80;;;;;;;29.92;54.66;97051.54;104553;1287;22572;-84
2022/08/15 11:51:21;;;;;;;12.90;9.00;;;;;;;30.05;54.73;97047.83;104544;1287;22548;-83
2022/08/15 11:54:14;;;;;;;11.50;7.80;;;;;;;30.30;53.56;97052.00;104554;1288;23231;-84
2022/08/15 11:57:09;;;;;;;9.20;6.90;;;;;;;30.59;53.29;97051.17;104750;1287;22571;-84
2022/08/15 12:00:08;;;;;;;10.00;7.90;;;;;;;30.81;53.14;97046.73;104536;1288;23965;-84
2022/08/15 12:02:38;;;;;;;9.00;7.40;;;;;;;31.10;52.43;97045.89;104663;1287;22582;-84
2022/08/15 12:05:33;;;;;;;12.50;8.70;;;;;;;31.32;50.83;97041.48;104564;1287;22594;-85
2022/08/15 12:08:11;;;;;;;10.60;8.10;;;;;;;31.34;48.57;97045.04;104738;1287;25415;-85
2022/08/15 12:11:14;;;;;;;10.30;7.80;;;;;;;31.26;49.61;97047.42;104619;1287;25482;-84
2022/08/15 12:13:59;;;;;;;9.30;7.90;;;;;;;31.38;48.69;97042.91;104626;1287;25322;-84
2022/08/15 12:16:38;;;;;;;11.20;8.50;;;;;;;31.51;49.20;97038.51;104621;1287;24256;-84
2022/08/15 12:19:37;;;;;;;10.00;8.00;;;;;;;31.74;49.46;97032.21;104682;1283;23944;-84
2022/08/15 12:22:40;;;;;;;10.40;7.80;;;;;;;31.89;48.33;97035.66;105396;1281;25430;-83
2022/08/15 12:25:22;;;;;;;8.10;7.20;;;;;;;31.95;47.62;97032.34;105555;1281;22793;-83
2022/08/15 12:28:10;;;;;;;11.90;6.90;;;;;;;32.04;46.10;97026.21;105567;1281;24218;-84
2022/08/15 12:30:58;;;;;;;8.40;7.50;;;;;;;32.12;46.25;97032.34;105398;1281;22710;-84
2022/08/15 12:33:26;;;;;;;10.50;7.60;;;;;;;32.25;44.98;97030.39;105454;1281;22531;-84
2022/08/15 12:35:54;;;;;;;8.80;7.00;;;;;;;32.24;45.16;97031.41;105455;1281;22567;-85